Time;durP1;ratioP1;P1;durP2;ratioP2;P2;SDS_P1;SDS_P2;PMS_P1;PMS_P2;Temp;Humidity;BMP_temperature;BMP_pressure;BME280_temperature;BME280_humidity;BME280_pressure;Samples;Min_cycle;Max_cycle;Signal;HPM_P1;HPM_P2
2021/07/21 00:02:20;;;;;;;10.30;7.32;;;;;;;14.59;61.92;96072.78;4993811;28;20225;-76
2021/07/21 00:04:46;;;;;;;10.27;6.82;;;;;;;14.54;62.11;96080.25;5010375;28;20736;-74
2021/07/21 00:07:13;;;;;;;11.77;7.90;;;;;;;14.52;61.80;96077.00;5010368;28;20191;-75
2021/07/21 00:09:38;;;;;;;9.23;6.95;;;;;;;14.57;60.59;96080.75;5009440;28;20175;-74
2021/07/21 00:14:47;;;;;;;12.32;7.70;;;;;;;14.76;59.30;96077.06;5009200;28;20217;-75
2021/07/21 00:17:22;;;;;;;9.25;7.55;;;;;;;14.83;59.38;96072.81;4993845;28;20270;-75
2021/07/21 00:20:06;;;;;;;11.20;6.85;;;;;;;14.91;58.82;96074.63;5011654;28;20821;-75
2021/07/21 00:22:34;;;;;;;10.85;6.88;;;;;;;14.88;59.33;96077.56;5009882;28;20179;-74
2021/07/21 00:24:59;;;;;;;9.35;7.03;;;;;;;14.88;59.13;96072.34;5010257;28;20567;-76
2021/07/21 00:27:24;;;;;;;10.80;7.20;;;;;;;14.84;59.68;96071.84;5010194;28;20175;-75
2021/07/21 00:29:51;;;;;;;11.55;6.90;;;;;;;14.77;59.86;96068.25;5011492;28;20234;-75
2021/07/21 00:32:16;;;;;;;10.70;7.72;;;;;;;14.77;60.09;96068.25;5008792;28;20710;-75
2021/07/21 00:34:41;;;;;;;10.32;7.43;;;;;;;14.71;61.00;96071.50;5010094;28;20241;-75
2021/07/21 00:37:07;;;;;;;10.20;6.45;;;;;;;14.71;60.71;96063.66;4993745;28;20183;-75
2021/07/21 00:39:32;;;;;;;11.82;8.02;;;;;;;14.69;61.27;96058.59;5011337;28;20254;-74
2021/07/21 00:41:58;;;;;;;11.13;7.43;;;;;;;14.71;61.14;96059.22;5008636;28;20246;-73
2021/07/21 00:44:23;;;;;;;9.52;7.15;;;;;;;14.77;60.15;96065.63;5009875;28;20242;-75
2021/07/21 00:46:48;;;;;;;10.88;7.47;;;;;;;14.91;59.24;96070.22;5010046;28;20254;-74
2021/07/21 00:49:13;;;;;;;9.17;7.63;;;;;;;14.92;59.61;96066.59;5010095;28;20190;-75
2021/07/21 00:51:39;;;;;;;9.80;6.63;;;;;;;14.87;60.55;96061.06;5011889;28;20179;-73
2021/07/21 00:54:04;;;;;;;9.50;7.03;;;;;;;14.85;60.18;96055.19;5012705;28;20306;-75
2021/07/21 00:56:31;;;;;;;10.25;7.45;;;;;;;14.81;60.57;96053.84;5013739;28;20179;-75
2021/07/21 00:58:57;;;;;;;11.48;7.68;;;;;;;14.78;60.19;96061.22;5013550;28;21020;-74
2021/07/21 01:01:22;;;;;;;11.17;7.97;;;;;;;14.70;60.66;96054.16;5013524;28;20183;-75
2021/07/21 01:03:47;;;;;;;11.52;8.00;;;;;;;14.61;61.64;96062.97;5012683;28;20261;-75
2021/07/21 01:06:13;;;;;;;11.82;8.07;;;;;;;14.55;61.96;96055.75;5013614;28;20179;-75
2021/07/21 01:08:38;;;;;;;13.60;7.38;;;;;;;14.51;63.33;96059.69;5013488;28;20175;-75
2021/07/21 01:11:23;;;;;;;11.98;7.85;;;;;;;14.51;62.16;96065.72;5013549;28;20180;-74
2021/07/21 01:13:57;;;;;;;12.63;7.70;;;;;;;14.51;62.25;96057.06;5011292;28;20218;-75
2021/07/21 01:16:26;;;;;;;10.10;7.85;;;;;;;14.50;63.11;96056.25;5014627;28;20180;-74
2021/07/21 01:19:27;;;;;;;10.02;7.85;;;;;;;14.48;62.89;96052.97;5013450;28;20179;-75
2021/07/21 01:22:14;;;;;;;12.93;7.53;;;;;;;14.47;63.77;96053.94;5014316;28;20635;-75
2021/07/21 01:25:09;;;;;;;10.15;7.57;;;;;;;14.41;64.30;96057.19;5013466;28;20221;-75
2021/07/21 01:27:50;;;;;;;10.30;7.20;;;;;;;14.29;64.54;96047.97;5007374;28;20190;-75
2021/07/21 01:30:18;;;;;;;13.15;8.13;;;;;;;14.19;64.65;96045.50;5013372;28;20175;-76
2021/07/21 01:32:49;;;;;;;12.83;8.97;;;;;;;14.04;66.28;96039.22;5012799;28;20203;-76
2021/07/21 01:35:28;;;;;;;12.97;8.27;;;;;;;13.96;66.21;96044.41;5011211;28;20250;-76
2021/07/21 01:37:57;;;;;;;10.70;7.77;;;;;;;13.92;66.55;96048.31;5012726;28;20183;-76
2021/07/21 01:40:28;;;;;;;11.20;7.83;;;;;;;13.86;66.51;96041.91;5013087;28;20632;-76
2021/07/21 01:42:58;;;;;;;11.73;7.67;;;;;;;13.81;66.61;96036.38;5012760;28;20206;-76
2021/07/21 01:45:26;;;;;;;11.50;8.17;;;;;;;13.77;67.08;96035.84;5013006;28;20179;-76
2021/07/21 01:47:52;;;;;;;9.60;8.10;;;;;;;13.71;67.15;96040.88;5011815;28;20651;-75
2021/07/21 01:50:18;;;;;;;10.83;8.23;;;;;;;13.59;67.86;96033.28;5012799;28;20248;-76
2021/07/21 01:52:48;;;;;;;10.00;7.80;;;;;;;13.53;67.66;96036.53;5012503;28;20246;-75
2021/07/21 01:55:15;;;;;;;11.33;8.10;;;;;;;13.42;68.38;96033.34;5012844;28;20667;-75
2021/07/21 01:57:41;;;;;;;11.43;7.90;;;;;;;13.38;68.85;96038.06;5011724;28;20191;-75
2021/07/21 02:00:10;;;;;;;12.83;8.37;;;;;;;13.35;68.86;96030.56;5012570;28;20210;-75
2021/07/21 02:02:36;;;;;;;10.57;7.70;;;;;;;13.26;69.09;96026.25;5010990;28;20177;-75
2021/07/21 02:05:03;;;;;;;10.20;8.23;;;;;;;13.22;69.11;96027.50;5012445;28;20198;-75
2021/07/21 02:07:29;;;;;;;17.10;8.60;;;;;;;13.26;68.77;96028.84;5011506;28;20594;-76
2021/07/21 02:09:55;;;;;;;11.63;8.37;;;;;;;13.27;68.88;96028.69;4995849;28;20186;-75
2021/07/21 02:12:20;;;;;;;13.07;7.90;;;;;;;13.24;69.20;96028.16;5012151;28;20211;-76
2021/07/21 02:14:47;;;;;;;10.77;7.40;;;;;;;13.25;68.88;96032.41;5011990;28;20253;-76
2021/07/21 02:17:12;;;;;;;10.90;8.67;;;;;;;13.22;69.14;96030.94;5012341;28;20258;-75
2021/07/21 02:19:38;;;;;;;12.33;8.00;;;;;;;13.19;68.83;96026.03;5011239;28;20294;-74
2021/07/21 02:22:04;;;;;;;13.20;8.50;;;;;;;13.16;68.95;96026.28;5012000;28;20816;-75
2021/07/21 02:24:32;;;;;;;12.77;8.10;;;;;;;13.13;69.22;96031.81;4995816;28;20203;-76
2021/07/21 02:26:57;;;;;;;11.97;8.33;;;;;;;13.05;69.26;96024.75;5012224;28;20186;-76
2021/07/21 02:29:23;;;;;;;10.43;8.03;;;;;;;13.00;69.88;96032.22;5010659;28;20187;-74
2021/07/21 02:32:15;;;;;;;10.07;8.07;;;;;;;13.00;69.94;96020.97;5011530;28;20211;-76
2021/07/21 02:34:44;;;;;;;9.53;7.80;;;;;;;12.96;69.98;96028.25;4991885;28;20237;-74
2021/07/21 02:37:16;;;;;;;12.37;7.87;;;;;;;12.91;70.34;96027.09;5011989;28;20643;-75
2021/07/21 02:39:43;;;;;;;12.53;8.20;;;;;;;12.90;70.26;96025.44;5011015;28;20187;-75
2021/07/21 02:42:09;;;;;;;11.50;7.97;;;;;;;12.84;70.67;96018.22;5011103;28;20574;-75
2021/07/21 02:44:35;;;;;;;11.37;8.57;;;;;;;12.86;70.31;96027.53;5011843;28;20203;-74
2021/07/21 02:47:00;;;;;;;11.27;8.20;;;;;;;12.81;70.82;96015.91;5011898;28;20542;-75
2021/07/21 02:49:25;;;;;;;12.90;8.50;;;;;;;12.77;70.86;96015.38;5011712;28;20183;-74
2021/07/21 02:51:53;;;;;;;12.27;8.27;;;;;;;12.77;70.92;96023.19;5010316;28;20218;-74
2021/07/21 02:54:31;;;;;;;13.77;8.13;;;;;;;12.71;71.08;96027.22;4992066;28;20541;-74
2021/07/21 02:57:01;;;;;;;12.57;8.43;;;;;;;12.70;71.39;96029.97;4992140;28;20179;-74
2021/07/21 02:59:37;;;;;;;11.37;8.33;;;;;;;12.63;71.44;96027.16;4992050;28;20184;-75
2021/07/21 03:02:02;;;;;;;12.00;8.13;;;;;;;12.64;70.94;96026.19;5004487;28;20232;-74
2021/07/21 03:04:28;;;;;;;9.97;8.07;;;;;;;12.63;71.09;96029.78;5011233;28;20278;-74
2021/07/21 03:06:54;;;;;;;10.07;7.80;;;;;;;12.61;71.50;96030.88;5011433;28;20253;-74
2021/07/21 03:09:21;;;;;;;12.87;8.37;;;;;;;12.60;71.39;96034.44;5011407;28;20219;-74
2021/07/21 03:11:49;;;;;;;11.60;8.90;;;;;;;12.60;71.12;96030.06;5010110;28;20234;-75
2021/07/21 03:14:15;;;;;;;10.33;8.57;;;;;;;12.61;71.18;96036.91;5010294;28;20199;-75
2021/07/21 03:16:45;;;;;;;12.27;8.40;;;;;;;12.71;70.74;96034.22;5012590;28;20186;-75
2021/07/21 03:19:11;;;;;;;8.97;7.47;;;;;;;12.64;70.85;96036.63;5011194;28;20210;-75
2021/07/21 03:21:36;;;;;;;15.33;8.90;;;;;;;12.63;70.84;96036.75;5009902;28;20219;-75
2021/07/21 03:24:02;;;;;;;11.13;8.43;;;;;;;12.60;71.25;96037.88;5010792;28;20553;-74
2021/07/21 03:26:30;;;;;;;14.70;8.40;;;;;;;12.62;71.37;96045.53;5011145;28;20237;-73
2021/07/21 03:28:55;;;;;;;10.00;7.73;;;;;;;12.60;71.64;96040.47;5011106;28;20606;-75
2021/07/21 03:31:21;;;;;;;15.57;7.77;;;;;;;12.63;71.43;96040.19;5010802;28;20171;-75
2021/07/21 03:33:58;;;;;;;13.53;8.50;;;;;;;12.68;70.92;96044.94;5009724;28;20221;-74
2021/07/21 03:36:23;;;;;;;10.57;8.30;;;;;;;12.62;71.50;96046.34;5003832;28;20182;-75
2021/07/21 03:38:49;;;;;;;10.97;8.20;;;;;;;12.63;71.28;96040.19;5010892;28;20559;-76
2021/07/21 03:41:15;;;;;;;14.20;8.67;;;;;;;12.64;71.52;96047.03;5010831;28;20297;-75
2021/07/21 03:43:40;;;;;;;12.37;8.67;;;;;;;12.65;70.78;96043.47;5009772;28;20214;-75
2021/07/21 03:46:06;;;;;;;16.57;8.90;;;;;;;12.66;71.43;96047.72;5011780;28;20586;-77
2021/07/21 03:48:31;;;;;;;10.47;7.67;;;;;;;12.76;70.96;96052.84;5010856;28;20219;-76
2021/07/21 03:50:59;;;;;;;10.10;8.00;;;;;;;12.69;71.13;96039.59;5011063;28;20187;-75
2021/07/21 03:53:25;;;;;;;11.83;8.77;;;;;;;12.72;70.92;96048.88;4994160;28;20218;-76
2021/07/21 03:55:51;;;;;;;11.83;8.10;;;;;;;12.73;71.22;96040.94;5009160;28;20188;-76
2021/07/21 03:58:17;;;;;;;11.93;7.63;;;;;;;12.78;70.58;96043.09;4991096;28;20176;-76
2021/07/21 04:00:43;;;;;;;16.23;8.57;;;;;;;12.81;71.08;96047.16;4991008;28;20191;-76
2021/07/21 04:03:09;;;;;;;12.17;8.87;;;;;;;12.84;70.94;96041.69;4990638;28;20194;-76
2021/07/21 04:05:34;;;;;;;14.67;8.47;;;;;;;12.90;71.19;96047.13;5000143;28;20202;-75
2021/07/21 04:08:01;;;;;;;12.13;8.47;;;;;;;12.98;71.00;96051.56;5010373;28;20179;-74
2021/07/21 04:10:28;;;;;;;10.57;8.40;;;;;;;13.34;69.48;96047.19;5010528;28;20643;-74
2021/07/21 04:12:54;;;;;;;13.13;8.63;;;;;;;14.21;67.19;96055.78;5009664;28;20214;-74
2021/07/21 04:15:22;;;;;;;12.00;8.37;;;;;;;14.69;64.84;96057.78;5007624;28;20208;-74
2021/07/21 04:17:49;;;;;;;11.80;8.20;;;;;;;14.68;64.40;96059.56;4991251;28;20604;-74
2021/07/21 04:20:15;;;;;;;9.70;7.63;;;;;;;14.62;64.92;96054.97;5007879;28;20183;-74
2021/07/21 04:22:41;;;;;;;11.60;8.30;;;;;;;14.44;65.25;96052.44;5008882;28;20172;-74
2021/07/21 04:25:09;;;;;;;10.90;8.23;;;;;;;14.36;65.71;96064.66;5009963;28;20750;-74
2021/07/21 04:27:36;;;;;;;10.33;7.60;;;;;;;14.19;66.34;96066.38;5013097;28;20206;-75
2021/07/21 04:30:01;;;;;;;12.10;8.77;;;;;;;14.23;66.25;96056.47;5015603;28;20189;-74
2021/07/21 04:32:28;;;;;;;11.23;8.13;;;;;;;14.21;66.42;96058.41;5013942;28;20207;-74
2021/07/21 04:34:53;;;;;;;12.53;8.13;;;;;;;14.32;66.11;96058.94;5013796;28;20195;-75
2021/07/21 04:37:19;;;;;;;11.43;7.93;;;;;;;14.34;66.09;96061.41;5012330;28;20646;-75
2021/07/21 04:39:45;;;;;;;11.33;8.23;;;;;;;14.70;65.35;96062.84;5015275;28;20245;-75
2021/07/21 04:42:11;;;;;;;10.90;8.60;;;;;;;16.50;61.21;96066.03;4997229;28;20182;-75
2021/07/21 04:44:37;;;;;;;9.70;7.60;;;;;;;18.11;54.88;96061.53;4997591;28;20342;-75
2021/07/21 04:47:03;;;;;;;9.80;7.07;;;;;;;19.65;51.01;96063.81;5012163;28;20283;-76
2021/07/21 04:49:32;;;;;;;10.93;7.45;;;;;;;20.83;46.44;96076.00;5015328;28;20187;-76
2021/07/21 04:52:02;;;;;;;9.85;7.05;;;;;;;21.26;44.81;96075.69;5013445;28;20704;-76
2021/07/21 04:54:28;;;;;;;8.32;7.32;;;;;;;22.28;42.60;96077.94;4997443;28;20202;-76
2021/07/21 04:56:54;;;;;;;10.75;7.00;;;;;;;22.44;42.09;96081.13;5030250;28;20171;-75
2021/07/21 04:59:19;;;;;;;11.70;7.93;;;;;;;24.34;38.10;96080.13;5012633;28;20190;-76
2021/07/21 05:01:44;;;;;;;9.98;7.43;;;;;;;25.16;36.22;96085.88;5013456;28;20191;-76
2021/07/21 05:04:10;;;;;;;9.55;7.40;;;;;;;25.15;35.70;96092.22;5013591;28;20202;-76
2021/07/21 05:06:35;;;;;;;7.80;7.00;;;;;;;26.32;34.55;96088.94;5013311;28;20279;-75
2021/07/21 05:09:00;;;;;;;10.85;7.45;;;;;;;25.74;34.38;96097.72;5002494;28;20238;-75
2021/07/21 05:11:26;;;;;;;8.20;7.40;;;;;;;25.53;35.01;96104.34;5016932;28;20262;-77
2021/07/21 05:13:51;;;;;;;7.80;7.00;;;;;;;25.74;34.34;96108.38;5012956;28;20207;-76
2021/07/21 05:16:17;;;;;;;9.10;7.38;;;;;;;25.24;34.61;96106.81;5032582;28;20206;-77
2021/07/21 05:18:43;;;;;;;8.35;7.10;;;;;;;25.05;35.29;96108.69;5017180;28;20183;-77
2021/07/21 05:21:09;;;;;;;9.13;7.72;;;;;;;24.69;36.05;96106.06;4991378;28;20195;-74
2021/07/21 05:23:35;;;;;;;10.60;7.95;;;;;;;25.36;34.41;96112.19;4996786;28;20653;-76
2021/07/21 05:26:01;;;;;;;9.48;7.57;;;;;;;25.76;33.89;96117.72;4996671;28;20175;-76
2021/07/21 05:28:27;;;;;;;8.63;6.80;;;;;;;26.41;33.38;96117.66;5012851;28;20175;-76
2021/07/21 05:30:52;;;;;;;9.75;7.70;;;;;;;25.61;34.52;96125.28;5013194;28;20278;-75
2021/07/21 05:33:18;;;;;;;10.52;7.65;;;;;;;25.96;33.85;96107.56;5012771;28;20218;-75
2021/07/21 05:35:43;;;;;;;8.65;6.90;;;;;;;25.74;33.92;96116.34;5014499;28;20213;-76
2021/07/21 05:38:10;;;;;;;11.57;7.97;;;;;;;26.56;33.47;96119.84;4996607;28;20643;-76
2021/07/21 05:40:35;;;;;;;11.10;7.05;;;;;;;28.59;29.52;96122.63;4994757;28;20261;-76
2021/07/21 05:43:01;;;;;;;9.07;7.07;;;;;;;27.69;31.06;96125.53;5012146;28;20238;-76
2021/07/21 05:45:26;;;;;;;9.23;7.43;;;;;;;26.33;33.18;96122.50;5014215;28;20183;-75
2021/07/21 05:47:51;;;;;;;9.82;7.70;;;;;;;26.44;32.68;96124.38;5014031;28;20653;-76
2021/07/21 05:50:17;;;;;;;7.90;6.82;;;;;;;28.44;29.36;96133.91;5012895;28;20231;-76
2021/07/21 05:52:42;;;;;;;9.52;7.07;;;;;;;28.12;30.24;96130.22;5011452;28;20306;-74
2021/07/21 05:55:08;;;;;;;9.23;6.72;;;;;;;27.28;30.99;96125.56;5012494;28;20772;-76
2021/07/21 05:57:33;;;;;;;7.47;6.75;;;;;;;27.09;32.60;96129.47;5013779;28;20554;-76
2021/07/21 05:59:58;;;;;;;8.60;7.20;;;;;;;26.57;32.57;96137.44;4996088;28;20175;-76
2021/07/21 06:02:24;;;;;;;9.20;7.35;;;;;;;26.65;32.83;96136.28;5011154;28;20639;-76
2021/07/21 06:04:49;;;;;;;9.15;7.22;;;;;;;27.31;31.82;96135.78;5012548;28;20585;-76
2021/07/21 06:07:15;;;;;;;7.85;7.05;;;;;;;26.73;32.32;96144.72;5029022;28;20234;-75
2021/07/21 06:09:40;;;;;;;8.35;7.45;;;;;;;26.08;34.34;96146.69;5013595;28;20175;-76
2021/07/21 06:12:06;;;;;;;9.07;7.43;;;;;;;26.55;32.89;96144.88;4995484;28;20199;-76
2021/07/21 06:14:32;;;;;;;8.20;7.32;;;;;;;27.48;31.05;96146.50;5011613;28;20203;-76
2021/07/21 06:16:58;;;;;;;9.27;6.70;;;;;;;27.42;31.63;96146.63;5012131;28;20246;-75
2021/07/21 06:19:24;;;;;;;11.35;7.00;;;;;;;26.77;32.48;96155.72;5013682;28;20623;-76
2021/07/21 06:21:49;;;;;;;9.68;7.32;;;;;;;26.67;32.56;96150.97;5012073;28;20187;-76
2021/07/21 06:24:14;;;;;;;10.25;7.15;;;;;;;27.68;30.85;96148.72;5011036;28;20606;-76
2021/07/21 06:26:41;;;;;;;9.77;7.60;;;;;;;26.99;32.33;96153.25;4995483;28;20226;-76
2021/07/21 06:29:06;;;;;;;9.52;7.45;;;;;;;27.47;32.14;96160.84;5011983;28;20171;-76
2021/07/21 06:31:32;;;;;;;8.82;7.43;;;;;;;26.80;32.65;96155.25;5011762;28;20186;-75
2021/07/21 06:33:57;;;;;;;7.93;6.97;;;;;;;26.41;33.64;96164.78;5011785;28;20215;-74
2021/07/21 06:36:22;;;;;;;10.88;7.50;;;;;;;25.64;35.50;96173.53;4995434;28;20185;-76
2021/07/21 06:38:48;;;;;;;11.23;7.63;;;;;;;26.69;33.10;96175.56;5028260;28;20647;-75
2021/07/21 06:41:14;;;;;;;11.35;8.02;;;;;;;25.99;34.75;96167.53;5011546;28;20286;-76
2021/07/21 06:43:40;;;;;;;13.95;7.55;;;;;;;26.71;33.48;96176.13;5011500;28;20524;-77
2021/07/21 06:46:06;;;;;;;11.45;8.00;;;;;;;25.58;34.60;96181.59;5010823;28;20559;-77
2021/07/21 06:48:31;;;;;;;8.68;7.70;;;;;;;27.15;32.39;96187.19;5011065;28;20179;-77
2021/07/21 06:50:56;;;;;;;9.93;8.18;;;;;;;26.10;34.16;96189.84;5011504;28;20175;-76
2021/07/21 06:53:22;;;;;;;10.63;8.27;;;;;;;25.53;34.85;96184.13;5010988;28;20683;-77
2021/07/21 06:55:47;;;;;;;8.90;7.07;;;;;;;27.67;32.15;96195.13;5010448;28;20183;-76
2021/07/21 06:58:12;;;;;;;12.43;7.95;;;;;;;27.62;31.46;96190.47;5011357;28;20170;-77
2021/07/21 07:00:38;;;;;;;13.10;7.70;;;;;;;26.38;33.60;96192.69;5011206;28;20183;-75
2021/07/21 07:03:03;;;;;;;9.82;8.00;;;;;;;27.26;32.40;96194.34;4996479;28;20690;-76
2021/07/21 07:05:28;;;;;;;9.13;8.10;;;;;;;27.25;31.73;96192.72;5031331;28;20175;-76
2021/07/21 07:07:54;;;;;;;8.88;7.75;;;;;;;27.13;32.45;96191.94;5012210;28;20191;-75
2021/07/21 07:10:19;;;;;;;9.25;7.80;;;;;;;26.17;34.37;96196.69;5011122;28;20179;-75
2021/07/21 07:12:48;;;;;;;8.55;7.05;;;;;;;27.06;33.33;96196.59;4994415;28;20229;-75
2021/07/21 07:15:14;;;;;;;9.57;7.18;;;;;;;27.10;32.41;96201.22;5011159;28;20201;-75
2021/07/21 07:17:39;;;;;;;12.55;7.97;;;;;;;27.57;32.03;96202.94;5011075;28;20265;-76
2021/07/21 07:20:06;;;;;;;10.18;7.88;;;;;;;26.85;33.66;96197.16;5012141;28;20202;-76
2021/07/21 07:22:31;;;;;;;10.20;7.70;;;;;;;26.98;33.52;96202.25;5010867;28;20181;-76
2021/07/21 07:24:57;;;;;;;12.20;7.43;;;;;;;28.52;30.75;96201.34;5010645;28;20206;-75
2021/07/21 07:27:22;;;;;;;9.07;7.30;;;;;;;28.15;31.90;96201.81;5010556;28;20647;-76
2021/07/21 07:29:47;;;;;;;9.13;7.45;;;;;;;27.25;32.33;96191.91;5010832;28;20241;-76
2021/07/21 07:32:13;;;;;;;9.68;7.50;;;;;;;26.20;35.21;96204.22;5010599;28;20199;-76
2021/07/21 07:34:39;;;;;;;9.65;7.55;;;;;;;26.31;34.88;96196.47;5012154;28;20245;-77
2021/07/21 07:37:04;;;;;;;10.98;7.43;;;;;;;26.23;35.90;96195.75;4994452;28;20270;-76
2021/07/21 07:39:30;;;;;;;10.63;7.10;;;;;;;27.81;32.91;96199.09;5009375;28;20183;-76
2021/07/21 07:41:59;;;;;;;10.55;8.20;;;;;;;26.49;33.95;96188.41;5011517;28;20179;-76
2021/07/21 07:44:24;;;;;;;11.02;8.23;;;;;;;25.94;34.44;96196.66;4994829;28;20575;-76
2021/07/21 07:46:49;;;;;;;9.30;7.38;;;;;;;25.69;36.67;96192.28;5011581;28;20179;-76
2021/07/21 07:49:14;;;;;;;11.85;7.78;;;;;;;26.38;34.53;96197.19;4992677;28;20187;-76
2021/07/21 07:51:40;;;;;;;10.85;7.35;;;;;;;25.76;35.64;96199.38;5011595;28;20182;-76
2021/07/21 07:54:05;;;;;;;11.82;7.75;;;;;;;25.84;35.61;96196.41;4993910;28;20210;-76
2021/07/21 07:56:32;;;;;;;10.85;8.05;;;;;;;26.03;35.32;96192.63;5011902;28;20225;-76
2021/07/21 07:58:57;;;;;;;11.05;7.38;;;;;;;24.88;37.68;96184.72;5010057;28;20220;-75
2021/07/21 08:01:23;;;;;;;11.20;8.07;;;;;;;24.61;37.67;96186.84;5009214;28;20209;-75
2021/07/21 08:03:48;;;;;;;12.82;7.68;;;;;;;24.60;37.75;96184.41;5010080;28;20698;-75
2021/07/21 08:06:14;;;;;;;11.43;7.57;;;;;;;24.35;38.39;96185.25;5011596;28;20188;-74
2021/07/21 08:08:39;;;;;;;20.77;8.98;;;;;;;24.06;39.11;96191.19;4993703;28;20179;-75
2021/07/21 08:11:05;;;;;;;11.15;8.40;;;;;;;24.68;38.06;96186.78;5009277;28;20179;-76
2021/07/21 08:13:31;;;;;;;9.20;7.72;;;;;;;23.97;39.77;96180.84;5010340;28;20615;-78
2021/07/21 08:15:56;;;;;;;12.55;7.78;;;;;;;24.14;39.14;96182.97;5010876;28;20167;-76
2021/07/21 08:18:22;;;;;;;9.60;7.65;;;;;;;24.24;39.78;96191.25;5010848;28;20171;-75
2021/07/21 08:20:47;;;;;;;9.75;7.78;;;;;;;23.50;40.58;96191.94;5009867;28;20183;-78
2021/07/21 08:23:15;;;;;;;11.48;7.80;;;;;;;23.22;40.65;96186.97;4993937;28;20175;-76
2021/07/21 08:25:41;;;;;;;10.13;7.78;;;;;;;22.91;40.52;96183.25;5010934;28;20301;-75
2021/07/21 08:28:07;;;;;;;12.68;7.90;;;;;;;22.89;41.10;96180.81;5010542;28;20643;-77
2021/07/21 08:30:32;;;;;;;11.43;7.63;;;;;;;21.61;43.86;96186.53;5009549;28;20186;-76
2021/07/21 08:32:58;;;;;;;8.30;7.32;;;;;;;21.87;43.54;96180.47;4991396;28;20207;-76
2021/07/21 08:35:25;;;;;;;9.75;7.93;;;;;;;22.21;44.11;96179.50;5011549;28;20190;-76
2021/07/21 08:37:51;;;;;;;10.82;7.07;;;;;;;21.92;42.56;96181.50;5011038;28;20257;-76
2021/07/21 08:40:17;;;;;;;10.48;7.47;;;;;;;22.18;43.86;96183.38;5010179;28;20221;-74
2021/07/21 08:42:42;;;;;;;7.90;7.10;;;;;;;22.36;42.54;96185.38;5008819;28;20207;-75
2021/07/21 08:45:09;;;;;;;10.52;8.20;;;;;;;22.11;43.15;96189.69;4993426;28;20600;-75
2021/07/21 08:47:34;;;;;;;9.95;7.47;;;;;;;21.94;44.42;96183.94;5010217;28;20753;-76
2021/07/21 08:50:01;;;;;;;9.73;7.63;;;;;;;22.12;43.69;96191.31;5010151;28;20213;-75
2021/07/21 08:52:28;;;;;;;11.40;7.65;;;;;;;21.67;43.32;96186.56;4993507;28;20551;-76
2021/07/21 08:54:58;;;;;;;9.35;7.55;;;;;;;21.37;44.19;96195.84;5009029;28;20203;-76
2021/07/21 08:57:24;;;;;;;10.68;7.75;;;;;;;21.31;45.80;96191.38;5010281;28;20171;-77
2021/07/21 08:59:50;;;;;;;10.95;7.45;;;;;;;21.49;45.05;96192.44;5010266;28;20178;-76
2021/07/21 09:02:15;;;;;;;12.85;7.70;;;;;;;21.62;44.59;96188.97;5009878;28;20613;-76
2021/07/21 09:04:41;;;;;;;9.63;8.13;;;;;;;21.47;44.73;96189.19;5012240;28;20211;-75
2021/07/21 09:07:07;;;;;;;9.30;7.53;;;;;;;21.93;43.16;96193.72;5010970;28;20179;-76
2021/07/21 09:09:33;;;;;;;9.00;7.78;;;;;;;21.70;43.55;96194.09;5010148;28;20187;-75
2021/07/21 09:11:59;;;;;;;11.82;8.50;;;;;;;22.00;45.22;96193.72;4994325;28;20210;-75
2021/07/21 09:14:25;;;;;;;10.75;8.02;;;;;;;22.31;44.26;96193.94;5012607;28;20210;-75
2021/07/21 09:17:07;;;;;;;11.48;8.45;;;;;;;21.95;44.97;96196.97;5013595;28;20234;-76
2021/07/21 09:19:40;;;;;;;8.93;7.38;;;;;;;22.37;43.81;96191.50;4993679;28;20176;-76
2021/07/21 09:22:14;;;;;;;8.45;7.55;;;;;;;21.86;42.90;96195.53;4977576;28;20187;-75
2021/07/21 09:24:40;;;;;;;11.45;8.68;;;;;;;21.35;43.80;96196.03;4993614;28;20202;-76
2021/07/21 09:27:05;;;;;;;11.82;8.40;;;;;;;21.56;43.43;96194.28;4996871;28;20187;-75
2021/07/21 09:29:30;;;;;;;11.38;7.40;;;;;;;21.63;43.73;96192.44;5013493;28;20175;-76
2021/07/21 09:32:02;;;;;;;10.90;8.40;;;;;;;21.72;43.83;96199.16;5013062;28;20647;-76
2021/07/21 09:34:28;;;;;;;10.27;8.48;;;;;;;21.80;45.41;96190.22;5013339;28;20209;-76
2021/07/21 09:37:06;;;;;;;11.13;8.27;;;;;;;22.17;42.93;96199.41;5012692;28;20194;-76
2021/07/21 09:39:37;;;;;;;9.93;7.80;;;;;;;22.19;45.66;96205.34;4996959;28;20183;-76
2021/07/21 09:42:04;;;;;;;12.40;8.43;;;;;;;22.09;44.16;96200.47;5013953;28;20167;-76
2021/07/21 09:44:40;;;;;;;14.88;9.20;;;;;;;22.31;43.56;96207.16;5013061;28;20202;-76
2021/07/21 09:47:13;;;;;;;9.65;7.90;;;;;;;22.52;45.03;96205.28;5012194;28;20321;-76
2021/07/21 09:49:39;;;;;;;11.73;8.02;;;;;;;22.88;42.68;96202.19;5013926;28;20262;-76
2021/07/21 09:52:18;;;;;;;10.70;7.78;;;;;;;23.13;43.24;96199.66;5013873;28;20232;-76
2021/07/21 09:55:09;;;;;;;11.68;7.95;;;;;;;22.60;42.70;96205.88;5012931;28;20203;-77
2021/07/21 09:57:35;;;;;;;11.75;8.55;;;;;;;22.13;44.24;96201.66;5012115;28;20236;-75
2021/07/21 10:00:16;;;;;;;12.60;8.40;;;;;;;22.18;43.61;96209.81;5014846;28;20543;-76
2021/07/21 10:02:41;;;;;;;9.50;8.40;;;;;;;22.28;43.95;96202.28;5013059;28;20179;-77
2021/07/21 10:05:06;;;;;;;10.38;8.38;;;;;;;22.54;42.66;96205.94;5032121;28;20719;-75
2021/07/21 10:10:19;;;;;;;9.98;8.02;;;;;;;22.45;43.58;96204.50;5028517;28;20183;-75
2021/07/21 10:12:57;;;;;;;12.93;8.20;;;;;;;22.53;43.58;96204.31;5013471;28;20195;-76
2021/07/21 10:15:22;;;;;;;12.77;8.05;;;;;;;21.53;45.78;96200.75;4996079;28;20175;-75
2021/07/21 10:18:23;;;;;;;12.82;8.60;;;;;;;22.30;45.87;96202.88;5013129;28;20194;-74
2021/07/21 10:20:49;;;;;;;10.35;7.90;;;;;;;22.39;43.58;96203.50;4952520;29;20224;-75
2021/07/21 10:23:16;;;;;;;12.07;8.85;;;;;;;22.40;44.57;96199.00;4951239;28;20780;-74
2021/07/21 10:25:42;;;;;;;11.65;8.48;;;;;;;22.87;44.46;96205.84;4952685;29;20248;-75
2021/07/21 10:28:08;;;;;;;9.57;7.70;;;;;;;22.68;42.72;96207.50;4952636;29;20200;-75
2021/07/21 10:30:35;;;;;;;10.38;8.32;;;;;;;22.28;44.41;96210.22;4952097;29;20244;-76
2021/07/21 10:33:01;;;;;;;12.30;9.68;;;;;;;21.97;44.63;96204.69;4952233;29;20288;-76
2021/07/21 10:35:29;;;;;;;9.20;8.23;;;;;;;22.67;43.65;96210.38;4952917;29;20279;-76
2021/07/21 10:37:55;;;;;;;9.50;8.32;;;;;;;22.53;42.80;96193.72;4921098;29;20220;-78
2021/07/21 10:40:22;;;;;;;9.52;8.25;;;;;;;22.65;45.27;96212.41;4951784;29;20212;-76
2021/07/21 10:42:50;;;;;;;13.85;8.00;;;;;;;22.78;43.93;96197.28;4935792;29;20212;-75
2021/07/21 10:45:18;;;;;;;12.18;8.85;;;;;;;22.53;43.71;96199.00;4952240;29;20284;-75
2021/07/21 10:47:45;;;;;;;11.68;8.88;;;;;;;22.64;45.12;96208.97;4952426;29;20204;-76
2021/07/21 10:50:41;;;;;;;10.65;8.27;;;;;;;22.42;45.36;96202.25;4951176;29;20185;-76
2021/07/21 10:59:21;;;;;;;14.68;8.88;;;;;;;21.87;46.92;96207.72;5012611;28;20241;-74
2021/07/21 11:01:47;;;;;;;11.15;8.32;;;;;;;21.59;45.46;96201.78;5010032;28;20218;-75
2021/07/21 11:04:13;;;;;;;11.23;8.30;;;;;;;22.15;46.02;96204.09;5011169;28;20264;-75
2021/07/21 11:06:50;;;;;;;10.93;9.27;;;;;;;21.97;46.00;96200.22;5011471;28;20714;-75
2021/07/21 11:09:21;;;;;;;12.15;9.57;;;;;;;21.57;46.26;96195.91;5011418;28;20193;-75
2021/07/21 11:11:50;;;;;;;12.10;8.68;;;;;;;21.53;46.63;96190.19;5011043;28;20237;-76
2021/07/21 11:14:21;;;;;;;12.25;9.32;;;;;;;21.86;44.67;96192.88;5002895;28;20222;-74
2021/07/21 11:16:50;;;;;;;12.35;9.18;;;;;;;21.65;44.59;96185.97;5012384;28;20270;-75
2021/07/21 11:19:35;;;;;;;10.60;8.65;;;;;;;22.33;43.87;96183.94;5012378;28;20255;-75
2021/07/21 11:22:24;;;;;;;13.57;8.82;;;;;;;21.98;45.00;96193.09;5011181;28;20182;-77
2021/07/21 11:25:10;;;;;;;10.20;8.90;;;;;;;22.44;45.36;96181.69;5010878;28;20700;-75
2021/07/21 11:28:03;;;;;;;10.13;8.57;;;;;;;22.51;43.40;96179.84;5007856;28;20192;-76
2021/07/21 11:30:44;;;;;;;10.63;8.45;;;;;;;22.76;44.08;96183.47;4991465;28;20179;-76
2021/07/21 11:33:44;;;;;;;12.80;9.55;;;;;;;22.64;44.35;96185.13;4993458;28;20207;-76
2021/07/21 11:36:10;;;;;;;11.98;9.15;;;;;;;22.83;43.83;96183.44;5010038;28;20186;-76
2021/07/21 11:38:50;;;;;;;12.70;9.25;;;;;;;22.30;45.15;96187.00;5014646;28;20185;-75
2021/07/21 11:41:48;;;;;;;12.70;8.77;;;;;;;22.39;43.65;96176.22;4994736;28;20276;-76
2021/07/21 11:44:29;;;;;;;12.75;9.07;;;;;;;22.07;44.27;96189.25;4992654;28;20268;-75